Skip to main content.
 TIME   TEMPERATURE   WINDSPEED   DIRECTION   HUMIDITY   BAROMETER   RAINFALL 
11:15 28.4°C (83.1°F) 13.0 kmh (8.1 mph) NW 62% 1014.0hPa (29.94 inHg) 0.0mm (0.00 in.)
10:15 27.5°C (81.5 °F) 13.0 kmh (8.1 mph) NW 65% 1014.0hPa (29.94 inHg) 0.0mm (0.00 in.)
9:15 27.0°C (80.6 °F) 14.8 kmh (9.2 mph) NW 67% 1013.0hPa (29.91 inHg) 0.0mm (0.00 in.)
8:15 25.5°C (77.9 °F) 11.1 kmh (6.9 mph) NW 67% 1013.0hPa (29.91 inHg) 0.0mm (0.00 in.)
7:15 25.4°C (77.7 °F) 0.0 kmh (0.0 mph) NNW 66% 1013.0hPa (29.91 inHg) 0.0mm (0.00 in.)
6:15 25.2°C (77.4 °F) 0.0 kmh (0.0 mph) NW 66% 1012.0hPa (29.88 inHg) 0.0mm (0.00 in.)
5:15 25.3°C (77.5 °F) 7.4 kmh (4.6 mph) NW 67% 1012.0hPa (29.88 inHg) 0.0mm (0.00 in.)
4:15 25.5°C (77.9 °F) 0.0 kmh (0.0 mph) NW 66% 1012.0hPa (29.88 inHg) 0.0mm (0.00 in.)
3:15 25.5°C (77.9 °F) 0.0 kmh (0.0 mph) NW 66% 1012.0hPa (29.88 inHg) 0.0mm (0.00 in.)
2:15 25.6°C (78.1 °F) 1.9 kmh (1.2 mph) NW 66% 1012.0hPa (29.88 inHg) 0.0mm (0.00 in.)
1:15 25.7°C (78.3 °F) 0.0 kmh (0.0 mph) NNW 65% 1012.0hPa (29.88 inHg) 0.0mm (0.00 in.)
12:15 25.9°C (78.6 °F) 0.0 kmh (0.0 mph) N 64% 1013.0hPa (29.91 inHg) 0.0mm (0.00 in.)
11:15 26.0°C (78.8 °F) 13.0 kmh (8.1 mph) NNE 62% 1013.0hPa (29.91 inHg) 0.0mm (0.00 in.)
10:15 26.1°C (79.0 °F) 13.0 kmh (8.1 mph) N 61% 1012.0hPa (29.88 inHg) 0.0mm (0.00 in.)
9:15 26.3°C (79.3 °F) 13.0 kmh (8.1 mph) NNE 61% 1012.0hPa (29.88 inHg) 0.0mm (0.00 in.)
8:15 26.6°C (79.9 °F) 16.7 kmh (10.4 mph) N 60% 1012.0hPa (29.88 inHg) 0.0mm (0.00 in.)
7:15 28.2°C (82.8 °F) 14.8 kmh (9.2 mph) N 60% 1011.0hPa (29.85 inHg) 0.0mm (0.00 in.)
6:15 28.5°C (83.3 °F) 13.0 kmh (8.1 mph) NNW 58% 1011.0hPa (29.85 inHg) 0.0mm (0.00 in.)
5:15 28.7°C (83.7 °F) 18.5 kmh (11.5 mph) NE 57% 1011.0hPa (29.85 inHg) 0.0mm (0.00 in.)
4:15 28.9°C (84.0 °F) 13.0 kmh (8.1 mph) NNE 57% 1011.0hPa (29.85 inHg) 0.0mm (0.00 in.)
3:15 30.3°C (86.5 °F) 22.2 kmh (13.8 mph) NE 55% 1011.0hPa (29.85 inHg) 0.0mm (0.00 in.)
2:15 30.1°C (86.2 °F) 11.1 kmh (6.9 mph) NNW 55% 1012.0hPa (29.88 inHg) 0.0mm (0.00 in.)
1:15 29.7°C (85.5 °F) 20.4 kmh (12.7 mph) NE 56% 1012.0hPa (29.88 inHg) 0.0mm (0.00 in.)
12:15 29.5°C (85.1 °F) 22.2 kmh (13.8 mph) N 57% 1012.0hPa (29.88 inHg) 0.0mm (0.00 in.)